<?xml version="1.0" encoding="UTF-8" standalone="no" ?>
<gpx xmlns="http://www.topografix.com/GPX/1/1" xmlns:xsi="http://www.w3.org/2001/XMLSchema-instance" xsi:schemaLocation="http://www.topografix.com/GPX/1/1 http://www.topografix.com/GPX/1/1/gpx.xsd" version="1.1" creator="VisuGPX - https://www.visugpx.com">
  <metadata>
    <name>BRC Alleyras gorges de l’Allier</name>
  </metadata>
  <wpt lat="44.95478" lon="3.66662">
    <ele>892</ele>
    <name><![CDATA[Point de passage 1]]></name>
    <type><![CDATA[GENERIC]]></type>
  </wpt>
  <wpt lat="44.91503" lon="3.66896">
    <ele>667</ele>
    <name><![CDATA[Point de passage 2]]></name>
    <type><![CDATA[GENERIC]]></type>
  </wpt>
  <trk>
    <name><![CDATA[BRC Alleyras gorges de l’Allier ]]></name>
    <trkseg>
      <trkpt lat="44.95478" lon="3.66662">
        <ele>892</ele>
        <time>2025-09-16T07:30:24.000Z</time>
      </trkpt>
      <trkpt lat="44.95487" lon="3.66692">
        <ele>891</ele>
        <time>2025-09-16T07:34:31.000Z</time>
      </trkpt>
      <trkpt lat="44.95505" lon="3.6671">
        <ele>893</ele>
        <time>2025-09-16T07:34:54.000Z</time>
      </trkpt>
      <trkpt lat="44.95526" lon="3.6673">
        <ele>890</ele>
        <time>2025-09-16T07:35:26.000Z</time>
      </trkpt>
      <trkpt lat="44.95549" lon="3.66729">
        <ele>889</ele>
        <time>2025-09-16T07:35:52.000Z</time>
      </trkpt>
      <trkpt lat="44.95571" lon="3.66722">
        <ele>886</ele>
        <time>2025-09-16T07:36:14.000Z</time>
      </trkpt>
      <trkpt lat="44.95594" lon="3.66713">
        <ele>884</ele>
        <time>2025-09-16T07:36:35.000Z</time>
      </trkpt>
      <trkpt lat="44.95616" lon="3.66704">
        <ele>881</ele>
        <time>2025-09-16T07:36:55.000Z</time>
      </trkpt>
      <trkpt lat="44.95637" lon="3.66693">
        <ele>881</ele>
        <time>2025-09-16T07:37:16.000Z</time>
      </trkpt>
      <trkpt lat="44.95659" lon="3.66683">
        <ele>880</ele>
        <time>2025-09-16T07:37:36.000Z</time>
      </trkpt>
      <trkpt lat="44.95681" lon="3.66674">
        <ele>877</ele>
        <time>2025-09-16T07:37:55.000Z</time>
      </trkpt>
      <trkpt lat="44.95703" lon="3.66666">
        <ele>872</ele>
        <time>2025-09-16T07:38:14.000Z</time>
      </trkpt>
      <trkpt lat="44.95711" lon="3.66635">
        <ele>868</ele>
        <time>2025-09-16T07:38:37.000Z</time>
      </trkpt>
      <trkpt lat="44.95694" lon="3.66614">
        <ele>864</ele>
        <time>2025-09-16T07:38:58.000Z</time>
      </trkpt>
      <trkpt lat="44.95676" lon="3.66593">
        <ele>860</ele>
        <time>2025-09-16T07:39:19.000Z</time>
      </trkpt>
      <trkpt lat="44.95661" lon="3.66569">
        <ele>859</ele>
        <time>2025-09-16T07:39:40.000Z</time>
      </trkpt>
      <trkpt lat="44.95654" lon="3.66538">
        <ele>854</ele>
        <time>2025-09-16T07:39:59.000Z</time>
      </trkpt>
      <trkpt lat="44.95658" lon="3.66506">
        <ele>854</ele>
        <time>2025-09-16T07:40:17.000Z</time>
      </trkpt>
      <trkpt lat="44.95666" lon="3.66476">
        <ele>852</ele>
        <time>2025-09-16T07:40:37.000Z</time>
      </trkpt>
      <trkpt lat="44.95675" lon="3.66446">
        <ele>845</ele>
        <time>2025-09-16T07:40:56.000Z</time>
      </trkpt>
      <trkpt lat="44.95683" lon="3.66415">
        <ele>842</ele>
        <time>2025-09-16T07:41:15.000Z</time>
      </trkpt>
      <trkpt lat="44.95693" lon="3.66386">
        <ele>839</ele>
        <time>2025-09-16T07:41:34.000Z</time>
      </trkpt>
      <trkpt lat="44.95704" lon="3.66358">
        <ele>836</ele>
        <time>2025-09-16T07:41:54.000Z</time>
      </trkpt>
      <trkpt lat="44.95725" lon="3.66341">
        <ele>831</ele>
        <time>2025-09-16T07:42:15.000Z</time>
      </trkpt>
      <trkpt lat="44.95748" lon="3.66343">
        <ele>827</ele>
        <time>2025-09-16T07:42:34.000Z</time>
      </trkpt>
      <trkpt lat="44.9577" lon="3.66345">
        <ele>823</ele>
        <time>2025-09-16T07:42:52.000Z</time>
      </trkpt>
      <trkpt lat="44.95793" lon="3.66349">
        <ele>821</ele>
        <time>2025-09-16T07:43:10.000Z</time>
      </trkpt>
      <trkpt lat="44.95817" lon="3.66344">
        <ele>822</ele>
        <time>2025-09-16T07:43:29.000Z</time>
      </trkpt>
      <trkpt lat="44.95837" lon="3.66328">
        <ele>821</ele>
        <time>2025-09-16T07:43:45.000Z</time>
      </trkpt>
      <trkpt lat="44.95855" lon="3.66306">
        <ele>817</ele>
        <time>2025-09-16T07:44:06.000Z</time>
      </trkpt>
      <trkpt lat="44.95874" lon="3.66287">
        <ele>813</ele>
        <time>2025-09-16T07:44:24.000Z</time>
      </trkpt>
      <trkpt lat="44.95895" lon="3.66271">
        <ele>812</ele>
        <time>2025-09-16T07:44:43.000Z</time>
      </trkpt>
      <trkpt lat="44.95916" lon="3.66259">
        <ele>808</ele>
        <time>2025-09-16T07:45:02.000Z</time>
      </trkpt>
      <trkpt lat="44.95939" lon="3.66255">
        <ele>807</ele>
        <time>2025-09-16T07:45:20.000Z</time>
      </trkpt>
      <trkpt lat="44.95962" lon="3.66257">
        <ele>806</ele>
        <time>2025-09-16T07:45:38.000Z</time>
      </trkpt>
      <trkpt lat="44.95985" lon="3.66262">
        <ele>803</ele>
        <time>2025-09-16T07:45:59.000Z</time>
      </trkpt>
      <trkpt lat="44.96008" lon="3.66268">
        <ele>802</ele>
        <time>2025-09-16T07:46:18.000Z</time>
      </trkpt>
      <trkpt lat="44.96031" lon="3.66272">
        <ele>801</ele>
        <time>2025-09-16T07:46:37.000Z</time>
      </trkpt>
      <trkpt lat="44.96053" lon="3.6628">
        <ele>799</ele>
        <time>2025-09-16T07:46:56.000Z</time>
      </trkpt>
      <trkpt lat="44.96075" lon="3.66291">
        <ele>794</ele>
        <time>2025-09-16T07:47:18.000Z</time>
      </trkpt>
      <trkpt lat="44.96094" lon="3.6631">
        <ele>794</ele>
        <time>2025-09-16T07:47:37.000Z</time>
      </trkpt>
      <trkpt lat="44.96105" lon="3.66338">
        <ele>789</ele>
        <time>2025-09-16T07:47:57.000Z</time>
      </trkpt>
      <trkpt lat="44.96123" lon="3.66358">
        <ele>786</ele>
        <time>2025-09-16T07:48:15.000Z</time>
      </trkpt>
      <trkpt lat="44.96144" lon="3.66368">
        <ele>783</ele>
        <time>2025-09-16T07:48:33.000Z</time>
      </trkpt>
      <trkpt lat="44.96165" lon="3.66383">
        <ele>780</ele>
        <time>2025-09-16T07:48:53.000Z</time>
      </trkpt>
      <trkpt lat="44.96186" lon="3.66398">
        <ele>777</ele>
        <time>2025-09-16T07:49:12.000Z</time>
      </trkpt>
      <trkpt lat="44.96203" lon="3.66419">
        <ele>774</ele>
        <time>2025-09-16T07:49:31.000Z</time>
      </trkpt>
      <trkpt lat="44.96217" lon="3.66445">
        <ele>770</ele>
        <time>2025-09-16T07:49:51.000Z</time>
      </trkpt>
      <trkpt lat="44.96213" lon="3.66476">
        <ele>772</ele>
        <time>2025-09-16T07:50:09.000Z</time>
      </trkpt>
      <trkpt lat="44.96203" lon="3.66506">
        <ele>771</ele>
        <time>2025-09-16T07:50:28.000Z</time>
      </trkpt>
      <trkpt lat="44.96195" lon="3.66536">
        <ele>771</ele>
        <time>2025-09-16T07:50:46.000Z</time>
      </trkpt>
      <trkpt lat="44.96202" lon="3.66567">
        <ele>772</ele>
        <time>2025-09-16T07:51:04.000Z</time>
      </trkpt>
      <trkpt lat="44.96225" lon="3.66572">
        <ele>767</ele>
        <time>2025-09-16T07:51:26.000Z</time>
      </trkpt>
      <trkpt lat="44.96247" lon="3.66569">
        <ele>767</ele>
        <time>2025-09-16T07:51:46.000Z</time>
      </trkpt>
      <trkpt lat="44.9627" lon="3.66571">
        <ele>767</ele>
        <time>2025-09-16T07:52:08.000Z</time>
      </trkpt>
      <trkpt lat="44.96293" lon="3.66574">
        <ele>772</ele>
        <time>2025-09-16T07:52:29.000Z</time>
      </trkpt>
      <trkpt lat="44.96315" lon="3.66564">
        <ele>775</ele>
        <time>2025-09-16T07:52:50.000Z</time>
      </trkpt>
      <trkpt lat="44.96338" lon="3.6656">
        <ele>774</ele>
        <time>2025-09-16T07:53:11.000Z</time>
      </trkpt>
      <trkpt lat="44.96358" lon="3.66573">
        <ele>780</ele>
        <time>2025-09-16T07:53:56.000Z</time>
      </trkpt>
      <trkpt lat="44.96377" lon="3.66595">
        <ele>784</ele>
        <time>2025-09-16T07:56:45.000Z</time>
      </trkpt>
      <trkpt lat="44.964" lon="3.66598">
        <ele>792</ele>
        <time>2025-09-16T07:57:21.000Z</time>
      </trkpt>
      <trkpt lat="44.96423" lon="3.66594">
        <ele>786</ele>
        <time>2025-09-16T07:57:52.000Z</time>
      </trkpt>
      <trkpt lat="44.96448" lon="3.66594">
        <ele>791</ele>
        <time>2025-09-16T07:58:22.000Z</time>
      </trkpt>
      <trkpt lat="44.96471" lon="3.66599">
        <ele>794</ele>
        <time>2025-09-16T08:02:21.000Z</time>
      </trkpt>
      <trkpt lat="44.96494" lon="3.66607">
        <ele>801</ele>
        <time>2025-09-16T08:02:49.000Z</time>
      </trkpt>
      <trkpt lat="44.96507" lon="3.66633">
        <ele>795</ele>
        <time>2025-09-16T08:03:17.000Z</time>
      </trkpt>
      <trkpt lat="44.96523" lon="3.66657">
        <ele>811</ele>
        <time>2025-09-16T08:03:45.000Z</time>
      </trkpt>
      <trkpt lat="44.96536" lon="3.66684">
        <ele>810</ele>
        <time>2025-09-16T08:04:07.000Z</time>
      </trkpt>
      <trkpt lat="44.96555" lon="3.66703">
        <ele>817</ele>
        <time>2025-09-16T08:04:34.000Z</time>
      </trkpt>
      <trkpt lat="44.96577" lon="3.66716">
        <ele>816</ele>
        <time>2025-09-16T08:05:16.000Z</time>
      </trkpt>
      <trkpt lat="44.96599" lon="3.66722">
        <ele>820</ele>
        <time>2025-09-16T08:05:35.000Z</time>
      </trkpt>
      <trkpt lat="44.96619" lon="3.6674">
        <ele>826</ele>
        <time>2025-09-16T08:06:02.000Z</time>
      </trkpt>
      <trkpt lat="44.9663" lon="3.6677">
        <ele>832</ele>
        <time>2025-09-16T08:06:27.000Z</time>
      </trkpt>
      <trkpt lat="44.96634" lon="3.66802">
        <ele>829</ele>
        <time>2025-09-16T08:06:55.000Z</time>
      </trkpt>
      <trkpt lat="44.96641" lon="3.66833">
        <ele>831</ele>
        <time>2025-09-16T08:07:17.000Z</time>
      </trkpt>
      <trkpt lat="44.96632" lon="3.66862">
        <ele>826</ele>
        <time>2025-09-16T08:07:42.000Z</time>
      </trkpt>
      <trkpt lat="44.96626" lon="3.66894">
        <ele>829</ele>
        <time>2025-09-16T08:08:08.000Z</time>
      </trkpt>
      <trkpt lat="44.96635" lon="3.66924">
        <ele>832</ele>
        <time>2025-09-16T08:08:32.000Z</time>
      </trkpt>
      <trkpt lat="44.96636" lon="3.66956">
        <ele>822</ele>
        <time>2025-09-16T08:08:59.000Z</time>
      </trkpt>
      <trkpt lat="44.96629" lon="3.66988">
        <ele>818</ele>
        <time>2025-09-16T08:09:25.000Z</time>
      </trkpt>
      <trkpt lat="44.96612" lon="3.6701">
        <ele>815</ele>
        <time>2025-09-16T08:09:46.000Z</time>
      </trkpt>
      <trkpt lat="44.96598" lon="3.67036">
        <ele>824</ele>
        <time>2025-09-16T08:10:07.000Z</time>
      </trkpt>
      <trkpt lat="44.96583" lon="3.67062">
        <ele>822</ele>
        <time>2025-09-16T08:10:30.000Z</time>
      </trkpt>
      <trkpt lat="44.96574" lon="3.67092">
        <ele>817</ele>
        <time>2025-09-16T08:10:52.000Z</time>
      </trkpt>
      <trkpt lat="44.96565" lon="3.67121">
        <ele>812</ele>
        <time>2025-09-16T08:11:15.000Z</time>
      </trkpt>
      <trkpt lat="44.9655" lon="3.67145">
        <ele>808</ele>
        <time>2025-09-16T08:11:34.000Z</time>
      </trkpt>
      <trkpt lat="44.96534" lon="3.67167">
        <ele>805</ele>
        <time>2025-09-16T08:11:52.000Z</time>
      </trkpt>
      <trkpt lat="44.9652" lon="3.67195">
        <ele>805</ele>
        <time>2025-09-16T08:12:10.000Z</time>
      </trkpt>
      <trkpt lat="44.96533" lon="3.6722">
        <ele>806</ele>
        <time>2025-09-16T08:12:38.000Z</time>
      </trkpt>
      <trkpt lat="44.96549" lon="3.67245">
        <ele>801</ele>
        <time>2025-09-16T08:13:02.000Z</time>
      </trkpt>
      <trkpt lat="44.96552" lon="3.67276">
        <ele>794</ele>
        <time>2025-09-16T08:13:23.000Z</time>
      </trkpt>
      <trkpt lat="44.96542" lon="3.67307">
        <ele>804</ele>
        <time>2025-09-16T08:13:46.000Z</time>
      </trkpt>
      <trkpt lat="44.96532" lon="3.67335">
        <ele>800</ele>
        <time>2025-09-16T08:14:13.000Z</time>
      </trkpt>
      <trkpt lat="44.96521" lon="3.67363">
        <ele>799</ele>
        <time>2025-09-16T08:14:33.000Z</time>
      </trkpt>
      <trkpt lat="44.96503" lon="3.67383">
        <ele>794</ele>
        <time>2025-09-16T08:14:57.000Z</time>
      </trkpt>
      <trkpt lat="44.96482" lon="3.67397">
        <ele>795</ele>
        <time>2025-09-16T08:15:17.000Z</time>
      </trkpt>
      <trkpt lat="44.96461" lon="3.6741">
        <ele>797</ele>
        <time>2025-09-16T08:15:39.000Z</time>
      </trkpt>
      <trkpt lat="44.96439" lon="3.6742">
        <ele>805</ele>
        <time>2025-09-16T08:16:00.000Z</time>
      </trkpt>
      <trkpt lat="44.96456" lon="3.67441">
        <ele>798</ele>
        <time>2025-09-16T08:16:19.000Z</time>
      </trkpt>
      <trkpt lat="44.9647" lon="3.67469">
        <ele>793</ele>
        <time>2025-09-16T08:16:40.000Z</time>
      </trkpt>
      <trkpt lat="44.96482" lon="3.67495">
        <ele>793</ele>
        <time>2025-09-16T08:17:01.000Z</time>
      </trkpt>
      <trkpt lat="44.96496" lon="3.67522">
        <ele>798</ele>
        <time>2025-09-16T08:17:20.000Z</time>
      </trkpt>
      <trkpt lat="44.96514" lon="3.67542">
        <ele>797</ele>
        <time>2025-09-16T08:17:39.000Z</time>
      </trkpt>
      <trkpt lat="44.96533" lon="3.6756">
        <ele>793</ele>
        <time>2025-09-16T08:18:00.000Z</time>
      </trkpt>
      <trkpt lat="44.96552" lon="3.67578">
        <ele>787</ele>
        <time>2025-09-16T08:18:21.000Z</time>
      </trkpt>
      <trkpt lat="44.96573" lon="3.67591">
        <ele>785</ele>
        <time>2025-09-16T08:18:43.000Z</time>
      </trkpt>
      <trkpt lat="44.96596" lon="3.67594">
        <ele>783</ele>
        <time>2025-09-16T08:19:05.000Z</time>
      </trkpt>
      <trkpt lat="44.96615" lon="3.67611">
        <ele>777</ele>
        <time>2025-09-16T08:19:31.000Z</time>
      </trkpt>
      <trkpt lat="44.96608" lon="3.67642">
        <ele>770</ele>
        <time>2025-09-16T08:19:53.000Z</time>
      </trkpt>
      <trkpt lat="44.96588" lon="3.67658">
        <ele>768</ele>
        <time>2025-09-16T08:20:15.000Z</time>
      </trkpt>
      <trkpt lat="44.96571" lon="3.67679">
        <ele>767</ele>
        <time>2025-09-16T08:20:34.000Z</time>
      </trkpt>
      <trkpt lat="44.96557" lon="3.67704">
        <ele>766</ele>
        <time>2025-09-16T08:20:54.000Z</time>
      </trkpt>
      <trkpt lat="44.96556" lon="3.67737">
        <ele>760</ele>
        <time>2025-09-16T08:21:21.000Z</time>
      </trkpt>
      <trkpt lat="44.96578" lon="3.67747">
        <ele>763</ele>
        <time>2025-09-16T08:21:41.000Z</time>
      </trkpt>
      <trkpt lat="44.96597" lon="3.67767">
        <ele>763</ele>
        <time>2025-09-16T08:22:00.000Z</time>
      </trkpt>
      <trkpt lat="44.96617" lon="3.67785">
        <ele>757</ele>
        <time>2025-09-16T08:22:21.000Z</time>
      </trkpt>
      <trkpt lat="44.96633" lon="3.67808">
        <ele>758</ele>
        <time>2025-09-16T08:22:41.000Z</time>
      </trkpt>
      <trkpt lat="44.9665" lon="3.6783">
        <ele>758</ele>
        <time>2025-09-16T08:23:03.000Z</time>
      </trkpt>
      <trkpt lat="44.96669" lon="3.67848">
        <ele>768</ele>
        <time>2025-09-16T08:23:27.000Z</time>
      </trkpt>
      <trkpt lat="44.9669" lon="3.67861">
        <ele>768</ele>
        <time>2025-09-16T08:25:35.000Z</time>
      </trkpt>
      <trkpt lat="44.96713" lon="3.67861">
        <ele>773</ele>
        <time>2025-09-16T08:26:52.000Z</time>
      </trkpt>
      <trkpt lat="44.96736" lon="3.67869">
        <ele>774</ele>
        <time>2025-09-16T08:29:17.000Z</time>
      </trkpt>
      <trkpt lat="44.96714" lon="3.67861">
        <ele>767</ele>
        <time>2025-09-16T08:33:53.000Z</time>
      </trkpt>
      <trkpt lat="44.96691" lon="3.67864">
        <ele>763</ele>
        <time>2025-09-16T08:34:34.000Z</time>
      </trkpt>
      <trkpt lat="44.96668" lon="3.67856">
        <ele>764</ele>
        <time>2025-09-16T08:35:24.000Z</time>
      </trkpt>
      <trkpt lat="44.96646" lon="3.67869">
        <ele>758</ele>
        <time>2025-09-16T08:37:31.000Z</time>
      </trkpt>
      <trkpt lat="44.96627" lon="3.67887">
        <ele>756</ele>
        <time>2025-09-16T08:37:54.000Z</time>
      </trkpt>
      <trkpt lat="44.96611" lon="3.67908">
        <ele>751</ele>
        <time>2025-09-16T08:38:25.000Z</time>
      </trkpt>
      <trkpt lat="44.96595" lon="3.67931">
        <ele>749</ele>
        <time>2025-09-16T08:38:47.000Z</time>
      </trkpt>
      <trkpt lat="44.96578" lon="3.67956">
        <ele>749</ele>
        <time>2025-09-16T08:39:08.000Z</time>
      </trkpt>
      <trkpt lat="44.96562" lon="3.6798">
        <ele>747</ele>
        <time>2025-09-16T08:39:31.000Z</time>
      </trkpt>
      <trkpt lat="44.96547" lon="3.68006">
        <ele>743</ele>
        <time>2025-09-16T08:39:54.000Z</time>
      </trkpt>
      <trkpt lat="44.96534" lon="3.68033">
        <ele>739</ele>
        <time>2025-09-16T08:40:13.000Z</time>
      </trkpt>
      <trkpt lat="44.96526" lon="3.68063">
        <ele>740</ele>
        <time>2025-09-16T08:40:32.000Z</time>
      </trkpt>
      <trkpt lat="44.96516" lon="3.68094">
        <ele>737</ele>
        <time>2025-09-16T08:40:52.000Z</time>
      </trkpt>
      <trkpt lat="44.96505" lon="3.68126">
        <ele>733</ele>
        <time>2025-09-16T08:41:18.000Z</time>
      </trkpt>
      <trkpt lat="44.96497" lon="3.68158">
        <ele>729</ele>
        <time>2025-09-16T08:41:42.000Z</time>
      </trkpt>
      <trkpt lat="44.96475" lon="3.68168">
        <ele>722</ele>
        <time>2025-09-16T08:42:10.000Z</time>
      </trkpt>
      <trkpt lat="44.96454" lon="3.68155">
        <ele>726</ele>
        <time>2025-09-16T08:42:35.000Z</time>
      </trkpt>
      <trkpt lat="44.96431" lon="3.68153">
        <ele>731</ele>
        <time>2025-09-16T08:43:00.000Z</time>
      </trkpt>
      <trkpt lat="44.96411" lon="3.68169">
        <ele>732</ele>
        <time>2025-09-16T08:43:23.000Z</time>
      </trkpt>
      <trkpt lat="44.96388" lon="3.6816">
        <ele>733</ele>
        <time>2025-09-16T08:43:50.000Z</time>
      </trkpt>
      <trkpt lat="44.96371" lon="3.68139">
        <ele>732</ele>
        <time>2025-09-16T08:44:54.000Z</time>
      </trkpt>
      <trkpt lat="44.9635" lon="3.68148">
        <ele>735</ele>
        <time>2025-09-16T08:45:22.000Z</time>
      </trkpt>
      <trkpt lat="44.96326" lon="3.68146">
        <ele>738</ele>
        <time>2025-09-16T08:46:01.000Z</time>
      </trkpt>
      <trkpt lat="44.96304" lon="3.68155">
        <ele>746</ele>
        <time>2025-09-16T08:46:49.000Z</time>
      </trkpt>
      <trkpt lat="44.96282" lon="3.68163">
        <ele>743</ele>
        <time>2025-09-16T08:47:26.000Z</time>
      </trkpt>
      <trkpt lat="44.96259" lon="3.6817">
        <ele>738</ele>
        <time>2025-09-16T08:48:44.000Z</time>
      </trkpt>
      <trkpt lat="44.96236" lon="3.68168">
        <ele>740</ele>
        <time>2025-09-16T08:51:03.000Z</time>
      </trkpt>
      <trkpt lat="44.96214" lon="3.68161">
        <ele>741</ele>
        <time>2025-09-16T08:51:32.000Z</time>
      </trkpt>
      <trkpt lat="44.96201" lon="3.68188">
        <ele>744</ele>
        <time>2025-09-16T08:51:59.000Z</time>
      </trkpt>
      <trkpt lat="44.9619" lon="3.68217">
        <ele>743</ele>
        <time>2025-09-16T08:52:36.000Z</time>
      </trkpt>
      <trkpt lat="44.96171" lon="3.68235">
        <ele>745</ele>
        <time>2025-09-16T08:53:06.000Z</time>
      </trkpt>
      <trkpt lat="44.96157" lon="3.68261">
        <ele>739</ele>
        <time>2025-09-16T08:53:38.000Z</time>
      </trkpt>
      <trkpt lat="44.96135" lon="3.68257">
        <ele>743</ele>
        <time>2025-09-16T08:54:04.000Z</time>
      </trkpt>
      <trkpt lat="44.96112" lon="3.68248">
        <ele>744</ele>
        <time>2025-09-16T08:54:37.000Z</time>
      </trkpt>
      <trkpt lat="44.96091" lon="3.68237">
        <ele>742</ele>
        <time>2025-09-16T08:55:02.000Z</time>
      </trkpt>
      <trkpt lat="44.9607" lon="3.68226">
        <ele>744</ele>
        <time>2025-09-16T08:55:27.000Z</time>
      </trkpt>
      <trkpt lat="44.96052" lon="3.68207">
        <ele>746</ele>
        <time>2025-09-16T08:55:53.000Z</time>
      </trkpt>
      <trkpt lat="44.96035" lon="3.68185">
        <ele>751</ele>
        <time>2025-09-16T08:56:18.000Z</time>
      </trkpt>
      <trkpt lat="44.96012" lon="3.68188">
        <ele>756</ele>
        <time>2025-09-16T08:56:48.000Z</time>
      </trkpt>
      <trkpt lat="44.95989" lon="3.68195">
        <ele>758</ele>
        <time>2025-09-16T08:57:15.000Z</time>
      </trkpt>
      <trkpt lat="44.95967" lon="3.68188">
        <ele>760</ele>
        <time>2025-09-16T08:57:47.000Z</time>
      </trkpt>
      <trkpt lat="44.95947" lon="3.68173">
        <ele>762</ele>
        <time>2025-09-16T09:02:46.000Z</time>
      </trkpt>
      <trkpt lat="44.95923" lon="3.68175">
        <ele>767</ele>
        <time>2025-09-16T09:03:22.000Z</time>
      </trkpt>
      <trkpt lat="44.95908" lon="3.682">
        <ele>768</ele>
        <time>2025-09-16T09:03:46.000Z</time>
      </trkpt>
      <trkpt lat="44.95887" lon="3.68213">
        <ele>770</ele>
        <time>2025-09-16T09:04:12.000Z</time>
      </trkpt>
      <trkpt lat="44.95867" lon="3.68229">
        <ele>773</ele>
        <time>2025-09-16T09:04:34.000Z</time>
      </trkpt>
      <trkpt lat="44.95845" lon="3.68243">
        <ele>778</ele>
        <time>2025-09-16T09:05:12.000Z</time>
      </trkpt>
      <trkpt lat="44.95827" lon="3.68263">
        <ele>781</ele>
        <time>2025-09-16T09:05:36.000Z</time>
      </trkpt>
      <trkpt lat="44.95813" lon="3.68289">
        <ele>782</ele>
        <time>2025-09-16T09:06:03.000Z</time>
      </trkpt>
      <trkpt lat="44.95795" lon="3.68314">
        <ele>778</ele>
        <time>2025-09-16T09:06:35.000Z</time>
      </trkpt>
      <trkpt lat="44.95773" lon="3.68325">
        <ele>779</ele>
        <time>2025-09-16T09:06:59.000Z</time>
      </trkpt>
      <trkpt lat="44.95753" lon="3.6834">
        <ele>780</ele>
        <time>2025-09-16T09:07:25.000Z</time>
      </trkpt>
      <trkpt lat="44.95744" lon="3.68372">
        <ele>778</ele>
        <time>2025-09-16T09:07:51.000Z</time>
      </trkpt>
      <trkpt lat="44.95739" lon="3.68403">
        <ele>778</ele>
        <time>2025-09-16T09:08:15.000Z</time>
      </trkpt>
      <trkpt lat="44.95719" lon="3.68418">
        <ele>777</ele>
        <time>2025-09-16T09:08:35.000Z</time>
      </trkpt>
      <trkpt lat="44.95701" lon="3.68438">
        <ele>775</ele>
        <time>2025-09-16T09:08:59.000Z</time>
      </trkpt>
      <trkpt lat="44.95681" lon="3.68455">
        <ele>776</ele>
        <time>2025-09-16T09:09:13.000Z</time>
      </trkpt>
      <trkpt lat="44.95666" lon="3.6848">
        <ele>778</ele>
        <time>2025-09-16T09:09:40.000Z</time>
      </trkpt>
      <trkpt lat="44.95645" lon="3.68492">
        <ele>780</ele>
        <time>2025-09-16T09:10:01.000Z</time>
      </trkpt>
      <trkpt lat="44.95627" lon="3.68512">
        <ele>783</ele>
        <time>2025-09-16T09:10:29.000Z</time>
      </trkpt>
      <trkpt lat="44.95629" lon="3.68544">
        <ele>781</ele>
        <time>2025-09-16T09:10:51.000Z</time>
      </trkpt>
      <trkpt lat="44.95626" lon="3.68576">
        <ele>779</ele>
        <time>2025-09-16T09:11:12.000Z</time>
      </trkpt>
      <trkpt lat="44.95623" lon="3.68608">
        <ele>776</ele>
        <time>2025-09-16T09:11:37.000Z</time>
      </trkpt>
      <trkpt lat="44.95617" lon="3.68641">
        <ele>775</ele>
        <time>2025-09-16T09:11:53.000Z</time>
      </trkpt>
      <trkpt lat="44.95618" lon="3.68674">
        <ele>778</ele>
        <time>2025-09-16T09:12:43.000Z</time>
      </trkpt>
      <trkpt lat="44.95615" lon="3.68706">
        <ele>775</ele>
        <time>2025-09-16T09:13:06.000Z</time>
      </trkpt>
      <trkpt lat="44.95618" lon="3.68738">
        <ele>774</ele>
        <time>2025-09-16T09:13:26.000Z</time>
      </trkpt>
      <trkpt lat="44.95621" lon="3.6877">
        <ele>774</ele>
        <time>2025-09-16T09:13:45.000Z</time>
      </trkpt>
      <trkpt lat="44.95623" lon="3.68803">
        <ele>777</ele>
        <time>2025-09-16T09:14:07.000Z</time>
      </trkpt>
      <trkpt lat="44.95623" lon="3.68835">
        <ele>774</ele>
        <time>2025-09-16T09:14:27.000Z</time>
      </trkpt>
      <trkpt lat="44.95619" lon="3.68867">
        <ele>776</ele>
        <time>2025-09-16T09:14:48.000Z</time>
      </trkpt>
      <trkpt lat="44.95618" lon="3.689">
        <ele>775</ele>
        <time>2025-09-16T09:15:08.000Z</time>
      </trkpt>
      <trkpt lat="44.95622" lon="3.68931">
        <ele>777</ele>
        <time>2025-09-16T09:17:19.000Z</time>
      </trkpt>
      <trkpt lat="44.95623" lon="3.68964">
        <ele>777</ele>
        <time>2025-09-16T09:17:47.000Z</time>
      </trkpt>
      <trkpt lat="44.95647" lon="3.68956">
        <ele>786</ele>
        <time>2025-09-16T09:20:09.000Z</time>
      </trkpt>
      <trkpt lat="44.95629" lon="3.68976">
        <ele>783</ele>
        <time>2025-09-16T09:26:58.000Z</time>
      </trkpt>
      <trkpt lat="44.9562" lon="3.68947">
        <ele>779</ele>
        <time>2025-09-16T09:28:50.000Z</time>
      </trkpt>
      <trkpt lat="44.95619" lon="3.68915">
        <ele>778</ele>
        <time>2025-09-16T09:29:15.000Z</time>
      </trkpt>
      <trkpt lat="44.95618" lon="3.68881">
        <ele>775</ele>
        <time>2025-09-16T09:29:36.000Z</time>
      </trkpt>
      <trkpt lat="44.95622" lon="3.68849">
        <ele>777</ele>
        <time>2025-09-16T09:29:55.000Z</time>
      </trkpt>
      <trkpt lat="44.95624" lon="3.68816">
        <ele>774</ele>
        <time>2025-09-16T09:30:30.000Z</time>
      </trkpt>
      <trkpt lat="44.95622" lon="3.68783">
        <ele>775</ele>
        <time>2025-09-16T09:30:48.000Z</time>
      </trkpt>
      <trkpt lat="44.95619" lon="3.68752">
        <ele>775</ele>
        <time>2025-09-16T09:31:07.000Z</time>
      </trkpt>
      <trkpt lat="44.95618" lon="3.68719">
        <ele>775</ele>
        <time>2025-09-16T09:31:28.000Z</time>
      </trkpt>
      <trkpt lat="44.95614" lon="3.68688">
        <ele>779</ele>
        <time>2025-09-16T09:31:54.000Z</time>
      </trkpt>
      <trkpt lat="44.95601" lon="3.68661">
        <ele>783</ele>
        <time>2025-09-16T09:32:19.000Z</time>
      </trkpt>
      <trkpt lat="44.95582" lon="3.68642">
        <ele>786</ele>
        <time>2025-09-16T09:32:48.000Z</time>
      </trkpt>
      <trkpt lat="44.9557" lon="3.68614">
        <ele>789</ele>
        <time>2025-09-16T09:33:11.000Z</time>
      </trkpt>
      <trkpt lat="44.95566" lon="3.68581">
        <ele>794</ele>
        <time>2025-09-16T09:33:47.000Z</time>
      </trkpt>
      <trkpt lat="44.95565" lon="3.68548">
        <ele>797</ele>
        <time>2025-09-16T09:34:20.000Z</time>
      </trkpt>
      <trkpt lat="44.95557" lon="3.68513">
        <ele>801</ele>
        <time>2025-09-16T09:34:48.000Z</time>
      </trkpt>
      <trkpt lat="44.95563" lon="3.68478">
        <ele>813</ele>
        <time>2025-09-16T09:35:11.000Z</time>
      </trkpt>
      <trkpt lat="44.95572" lon="3.68449">
        <ele>818</ele>
        <time>2025-09-16T09:35:42.000Z</time>
      </trkpt>
      <trkpt lat="44.95585" lon="3.68424">
        <ele>821</ele>
        <time>2025-09-16T09:36:02.000Z</time>
      </trkpt>
      <trkpt lat="44.95601" lon="3.68399">
        <ele>824</ele>
        <time>2025-09-16T09:36:32.000Z</time>
      </trkpt>
      <trkpt lat="44.95617" lon="3.68377">
        <ele>826</ele>
        <time>2025-09-16T09:36:56.000Z</time>
      </trkpt>
      <trkpt lat="44.95633" lon="3.68352">
        <ele>834</ele>
        <time>2025-09-16T09:37:27.000Z</time>
      </trkpt>
      <trkpt lat="44.95646" lon="3.68325">
        <ele>830</ele>
        <time>2025-09-16T09:37:52.000Z</time>
      </trkpt>
      <trkpt lat="44.9566" lon="3.68299">
        <ele>841</ele>
        <time>2025-09-16T09:38:19.000Z</time>
      </trkpt>
      <trkpt lat="44.95671" lon="3.6827">
        <ele>842</ele>
        <time>2025-09-16T09:38:45.000Z</time>
      </trkpt>
      <trkpt lat="44.95666" lon="3.68238">
        <ele>850</ele>
        <time>2025-09-16T09:39:00.000Z</time>
      </trkpt>
      <trkpt lat="44.95686" lon="3.68223">
        <ele>857</ele>
        <time>2025-09-16T09:39:24.000Z</time>
      </trkpt>
      <trkpt lat="44.95701" lon="3.68193">
        <ele>866</ele>
        <time>2025-09-16T09:40:06.000Z</time>
      </trkpt>
      <trkpt lat="44.9572" lon="3.68174">
        <ele>863</ele>
        <time>2025-09-16T09:40:34.000Z</time>
      </trkpt>
      <trkpt lat="44.95739" lon="3.68154">
        <ele>862</ele>
        <time>2025-09-16T09:41:16.000Z</time>
      </trkpt>
      <trkpt lat="44.95754" lon="3.68129">
        <ele>862</ele>
        <time>2025-09-16T09:41:37.000Z</time>
      </trkpt>
      <trkpt lat="44.95745" lon="3.68097">
        <ele>869</ele>
        <time>2025-09-16T09:51:28.000Z</time>
      </trkpt>
      <trkpt lat="44.95753" lon="3.68067">
        <ele>877</ele>
        <time>2025-09-16T09:51:54.000Z</time>
      </trkpt>
      <trkpt lat="44.95758" lon="3.68035">
        <ele>882</ele>
        <time>2025-09-16T09:52:12.000Z</time>
      </trkpt>
      <trkpt lat="44.95762" lon="3.68001">
        <ele>892</ele>
        <time>2025-09-16T09:52:46.000Z</time>
      </trkpt>
      <trkpt lat="44.95757" lon="3.67968">
        <ele>898</ele>
        <time>2025-09-16T09:53:19.000Z</time>
      </trkpt>
      <trkpt lat="44.95734" lon="3.67966">
        <ele>894</ele>
        <time>2025-09-16T09:55:04.000Z</time>
      </trkpt>
      <trkpt lat="44.95711" lon="3.67971">
        <ele>896</ele>
        <time>2025-09-16T09:55:26.000Z</time>
      </trkpt>
      <trkpt lat="44.95688" lon="3.67981">
        <ele>896</ele>
        <time>2025-09-16T09:55:45.000Z</time>
      </trkpt>
      <trkpt lat="44.95668" lon="3.67994">
        <ele>899</ele>
        <time>2025-09-16T09:56:09.000Z</time>
      </trkpt>
      <trkpt lat="44.95648" lon="3.68011">
        <ele>909</ele>
        <time>2025-09-16T09:56:35.000Z</time>
      </trkpt>
      <trkpt lat="44.9563" lon="3.6803">
        <ele>914</ele>
        <time>2025-09-16T09:57:01.000Z</time>
      </trkpt>
      <trkpt lat="44.95609" lon="3.68048">
        <ele>917</ele>
        <time>2025-09-16T09:57:23.000Z</time>
      </trkpt>
      <trkpt lat="44.95607" lon="3.6808">
        <ele>925</ele>
        <time>2025-09-16T09:57:51.000Z</time>
      </trkpt>
      <trkpt lat="44.95591" lon="3.68103">
        <ele>929</ele>
        <time>2025-09-16T09:58:19.000Z</time>
      </trkpt>
      <trkpt lat="44.95569" lon="3.68115">
        <ele>931</ele>
        <time>2025-09-16T09:58:53.000Z</time>
      </trkpt>
      <trkpt lat="44.95553" lon="3.68139">
        <ele>929</ele>
        <time>2025-09-16T10:02:34.000Z</time>
      </trkpt>
      <trkpt lat="44.95571" lon="3.68118">
        <ele>926</ele>
        <time>2025-09-16T10:11:39.000Z</time>
      </trkpt>
      <trkpt lat="44.95591" lon="3.68104">
        <ele>927</ele>
        <time>2025-09-16T10:12:08.000Z</time>
      </trkpt>
      <trkpt lat="44.95607" lon="3.68081">
        <ele>924</ele>
        <time>2025-09-16T10:12:46.000Z</time>
      </trkpt>
      <trkpt lat="44.9561" lon="3.6805">
        <ele>919</ele>
        <time>2025-09-16T10:13:19.000Z</time>
      </trkpt>
      <trkpt lat="44.9563" lon="3.68032">
        <ele>917</ele>
        <time>2025-09-16T10:13:44.000Z</time>
      </trkpt>
      <trkpt lat="44.95649" lon="3.68013">
        <ele>910</ele>
        <time>2025-09-16T10:14:10.000Z</time>
      </trkpt>
      <trkpt lat="44.95669" lon="3.67994">
        <ele>906</ele>
        <time>2025-09-16T10:14:36.000Z</time>
      </trkpt>
      <trkpt lat="44.9569" lon="3.67983">
        <ele>894</ele>
        <time>2025-09-16T10:15:12.000Z</time>
      </trkpt>
      <trkpt lat="44.95713" lon="3.67972">
        <ele>900</ele>
        <time>2025-09-16T10:15:35.000Z</time>
      </trkpt>
      <trkpt lat="44.95735" lon="3.67967">
        <ele>895</ele>
        <time>2025-09-16T10:15:55.000Z</time>
      </trkpt>
      <trkpt lat="44.95757" lon="3.67957">
        <ele>893</ele>
        <time>2025-09-16T10:16:14.000Z</time>
      </trkpt>
      <trkpt lat="44.95777" lon="3.67941">
        <ele>891</ele>
        <time>2025-09-16T10:16:34.000Z</time>
      </trkpt>
      <trkpt lat="44.95793" lon="3.67917">
        <ele>894</ele>
        <time>2025-09-16T10:16:52.000Z</time>
      </trkpt>
      <trkpt lat="44.95809" lon="3.67893">
        <ele>896</ele>
        <time>2025-09-16T10:18:36.000Z</time>
      </trkpt>
      <trkpt lat="44.95827" lon="3.67874">
        <ele>898</ele>
        <time>2025-09-16T10:18:57.000Z</time>
      </trkpt>
      <trkpt lat="44.95845" lon="3.67854">
        <ele>900</ele>
        <time>2025-09-16T10:19:18.000Z</time>
      </trkpt>
      <trkpt lat="44.95862" lon="3.67831">
        <ele>899</ele>
        <time>2025-09-16T10:19:40.000Z</time>
      </trkpt>
      <trkpt lat="44.95871" lon="3.67801">
        <ele>906</ele>
        <time>2025-09-16T10:20:05.000Z</time>
      </trkpt>
      <trkpt lat="44.95866" lon="3.67768">
        <ele>906</ele>
        <time>2025-09-16T10:20:35.000Z</time>
      </trkpt>
      <trkpt lat="44.95883" lon="3.67746">
        <ele>922</ele>
        <time>2025-09-16T10:22:53.000Z</time>
      </trkpt>
      <trkpt lat="44.95905" lon="3.6774">
        <ele>928</ele>
        <time>2025-09-16T10:23:20.000Z</time>
      </trkpt>
      <trkpt lat="44.95925" lon="3.67722">
        <ele>924</ele>
        <time>2025-09-16T10:23:42.000Z</time>
      </trkpt>
      <trkpt lat="44.95942" lon="3.67701">
        <ele>925</ele>
        <time>2025-09-16T10:24:04.000Z</time>
      </trkpt>
      <trkpt lat="44.95959" lon="3.67679">
        <ele>922</ele>
        <time>2025-09-16T10:24:27.000Z</time>
      </trkpt>
      <trkpt lat="44.95975" lon="3.67657">
        <ele>924</ele>
        <time>2025-09-16T10:24:45.000Z</time>
      </trkpt>
      <trkpt lat="44.95995" lon="3.67638">
        <ele>924</ele>
        <time>2025-09-16T10:25:07.000Z</time>
      </trkpt>
      <trkpt lat="44.96014" lon="3.67619">
        <ele>928</ele>
        <time>2025-09-16T10:25:26.000Z</time>
      </trkpt>
      <trkpt lat="44.96035" lon="3.67605">
        <ele>926</ele>
        <time>2025-09-16T10:25:46.000Z</time>
      </trkpt>
      <trkpt lat="44.96056" lon="3.67593">
        <ele>926</ele>
        <time>2025-09-16T10:26:06.000Z</time>
      </trkpt>
      <trkpt lat="44.96076" lon="3.67576">
        <ele>926</ele>
        <time>2025-09-16T10:26:42.000Z</time>
      </trkpt>
      <trkpt lat="44.96057" lon="3.67559">
        <ele>930</ele>
        <time>2025-09-16T10:29:24.000Z</time>
      </trkpt>
      <trkpt lat="44.96034" lon="3.67561">
        <ele>934</ele>
        <time>2025-09-16T10:29:46.000Z</time>
      </trkpt>
      <trkpt lat="44.96013" lon="3.6755">
        <ele>935</ele>
        <time>2025-09-16T10:30:09.000Z</time>
      </trkpt>
      <trkpt lat="44.96002" lon="3.67522">
        <ele>934</ele>
        <time>2025-09-16T10:30:30.000Z</time>
      </trkpt>
      <trkpt lat="44.95984" lon="3.675">
        <ele>933</ele>
        <time>2025-09-16T10:30:51.000Z</time>
      </trkpt>
      <trkpt lat="44.95973" lon="3.67472">
        <ele>931</ele>
        <time>2025-09-16T10:31:30.000Z</time>
      </trkpt>
      <trkpt lat="44.95958" lon="3.67445">
        <ele>926</ele>
        <time>2025-09-16T10:31:52.000Z</time>
      </trkpt>
      <trkpt lat="44.95943" lon="3.6742">
        <ele>923</ele>
        <time>2025-09-16T10:32:16.000Z</time>
      </trkpt>
      <trkpt lat="44.95931" lon="3.67394">
        <ele>920</ele>
        <time>2025-09-16T10:32:37.000Z</time>
      </trkpt>
      <trkpt lat="44.95914" lon="3.6737">
        <ele>919</ele>
        <time>2025-09-16T10:32:57.000Z</time>
      </trkpt>
      <trkpt lat="44.95899" lon="3.67345">
        <ele>916</ele>
        <time>2025-09-16T10:40:11.000Z</time>
      </trkpt>
      <trkpt lat="44.95894" lon="3.67313">
        <ele>919</ele>
        <time>2025-09-16T11:28:18.000Z</time>
      </trkpt>
      <trkpt lat="44.95877" lon="3.67292">
        <ele>919</ele>
        <time>2025-09-16T11:28:39.000Z</time>
      </trkpt>
      <trkpt lat="44.95855" lon="3.67285">
        <ele>916</ele>
        <time>2025-09-16T11:28:58.000Z</time>
      </trkpt>
      <trkpt lat="44.95831" lon="3.67279">
        <ele>916</ele>
        <time>2025-09-16T11:29:18.000Z</time>
      </trkpt>
      <trkpt lat="44.95809" lon="3.67274">
        <ele>914</ele>
        <time>2025-09-16T11:29:36.000Z</time>
      </trkpt>
      <trkpt lat="44.95793" lon="3.6725">
        <ele>912</ele>
        <time>2025-09-16T11:29:54.000Z</time>
      </trkpt>
      <trkpt lat="44.95791" lon="3.67217">
        <ele>913</ele>
        <time>2025-09-16T11:30:13.000Z</time>
      </trkpt>
      <trkpt lat="44.95784" lon="3.67186">
        <ele>909</ele>
        <time>2025-09-16T11:30:35.000Z</time>
      </trkpt>
      <trkpt lat="44.95765" lon="3.67166">
        <ele>908</ele>
        <time>2025-09-16T11:30:54.000Z</time>
      </trkpt>
      <trkpt lat="44.95749" lon="3.67143">
        <ele>907</ele>
        <time>2025-09-16T11:31:22.000Z</time>
      </trkpt>
      <trkpt lat="44.9574" lon="3.67114">
        <ele>903</ele>
        <time>2025-09-16T11:31:44.000Z</time>
      </trkpt>
      <trkpt lat="44.95728" lon="3.67086">
        <ele>901</ele>
        <time>2025-09-16T11:32:11.000Z</time>
      </trkpt>
      <trkpt lat="44.95715" lon="3.6706">
        <ele>898</ele>
        <time>2025-09-16T11:32:32.000Z</time>
      </trkpt>
      <trkpt lat="44.95705" lon="3.6703">
        <ele>895</ele>
        <time>2025-09-16T11:32:56.000Z</time>
      </trkpt>
      <trkpt lat="44.95697" lon="3.67">
        <ele>894</ele>
        <time>2025-09-16T11:33:15.000Z</time>
      </trkpt>
      <trkpt lat="44.95676" lon="3.66987">
        <ele>895</ele>
        <time>2025-09-16T11:33:37.000Z</time>
      </trkpt>
      <trkpt lat="44.95654" lon="3.66978">
        <ele>897</ele>
        <time>2025-09-16T11:34:00.000Z</time>
      </trkpt>
      <trkpt lat="44.95633" lon="3.66965">
        <ele>896</ele>
        <time>2025-09-16T11:34:22.000Z</time>
      </trkpt>
      <trkpt lat="44.95617" lon="3.6694">
        <ele>897</ele>
        <time>2025-09-16T11:34:42.000Z</time>
      </trkpt>
      <trkpt lat="44.95603" lon="3.66913">
        <ele>896</ele>
        <time>2025-09-16T11:35:02.000Z</time>
      </trkpt>
      <trkpt lat="44.95587" lon="3.66889">
        <ele>898</ele>
        <time>2025-09-16T11:35:22.000Z</time>
      </trkpt>
      <trkpt lat="44.95574" lon="3.66863">
        <ele>899</ele>
        <time>2025-09-16T11:35:42.000Z</time>
      </trkpt>
      <trkpt lat="44.95566" lon="3.66832">
        <ele>897</ele>
        <time>2025-09-16T11:36:02.000Z</time>
      </trkpt>
      <trkpt lat="44.95556" lon="3.66803">
        <ele>895</ele>
        <time>2025-09-16T11:36:22.000Z</time>
      </trkpt>
      <trkpt lat="44.95541" lon="3.66778">
        <ele>893</ele>
        <time>2025-09-16T11:36:42.000Z</time>
      </trkpt>
      <trkpt lat="44.95529" lon="3.6675">
        <ele>891</ele>
        <time>2025-09-16T11:37:02.000Z</time>
      </trkpt>
      <trkpt lat="44.95516" lon="3.66722">
        <ele>893</ele>
        <time>2025-09-16T11:37:23.000Z</time>
      </trkpt>
      <trkpt lat="44.95499" lon="3.66701">
        <ele>892</ele>
        <time>2025-09-16T11:37:40.000Z</time>
      </trkpt>
      <trkpt lat="44.9548" lon="3.66683">
        <ele>891</ele>
        <time>2025-09-16T11:38:00.000Z</time>
      </trkpt>
      <trkpt lat="44.95471" lon="3.66653">
        <ele>892</ele>
        <time>2025-09-16T11:38:38.000Z</time>
      </trkpt>
      <trkpt lat="44.95465" lon="3.66622">
        <ele>891</ele>
        <time>2025-09-16T11:43:34.000Z</time>
      </trkpt>
      <trkpt lat="44.95458" lon="3.66591">
        <ele>894</ele>
        <time>2025-09-16T11:44:02.000Z</time>
      </trkpt>
      <trkpt lat="44.9546" lon="3.66559">
        <ele>901</ele>
        <time>2025-09-16T11:44:26.000Z</time>
      </trkpt>
      <trkpt lat="44.95472" lon="3.66531">
        <ele>896</ele>
        <time>2025-09-16T11:44:53.000Z</time>
      </trkpt>
      <trkpt lat="44.95481" lon="3.66503">
        <ele>896</ele>
        <time>2025-09-16T11:45:21.000Z</time>
      </trkpt>
      <trkpt lat="44.9549" lon="3.66473">
        <ele>899</ele>
        <time>2025-09-16T11:45:49.000Z</time>
      </trkpt>
      <trkpt lat="44.95486" lon="3.6644">
        <ele>902</ele>
        <time>2025-09-16T11:46:14.000Z</time>
      </trkpt>
      <trkpt lat="44.95479" lon="3.66409">
        <ele>903</ele>
        <time>2025-09-16T11:46:40.000Z</time>
      </trkpt>
      <trkpt lat="44.95473" lon="3.66377">
        <ele>908</ele>
        <time>2025-09-16T11:47:06.000Z</time>
      </trkpt>
      <trkpt lat="44.95466" lon="3.66345">
        <ele>907</ele>
        <time>2025-09-16T11:47:36.000Z</time>
      </trkpt>
      <trkpt lat="44.9546" lon="3.66314">
        <ele>905</ele>
        <time>2025-09-16T11:47:57.000Z</time>
      </trkpt>
      <trkpt lat="44.95454" lon="3.66283">
        <ele>908</ele>
        <time>2025-09-16T11:48:28.000Z</time>
      </trkpt>
      <trkpt lat="44.95448" lon="3.66249">
        <ele>909</ele>
        <time>2025-09-16T11:49:00.000Z</time>
      </trkpt>
      <trkpt lat="44.95454" lon="3.66217">
        <ele>909</ele>
        <time>2025-09-16T11:49:22.000Z</time>
      </trkpt>
      <trkpt lat="44.9546" lon="3.66186">
        <ele>908</ele>
        <time>2025-09-16T11:49:55.000Z</time>
      </trkpt>
      <trkpt lat="44.95467" lon="3.66154">
        <ele>913</ele>
        <time>2025-09-16T11:50:20.000Z</time>
      </trkpt>
      <trkpt lat="44.95482" lon="3.6613">
        <ele>911</ele>
        <time>2025-09-16T11:50:46.000Z</time>
      </trkpt>
      <trkpt lat="44.95486" lon="3.66097">
        <ele>913</ele>
        <time>2025-09-16T11:51:15.000Z</time>
      </trkpt>
      <trkpt lat="44.95488" lon="3.66064">
        <ele>909</ele>
        <time>2025-09-16T11:52:07.000Z</time>
      </trkpt>
      <trkpt lat="44.95487" lon="3.66031">
        <ele>910</ele>
        <time>2025-09-16T11:52:29.000Z</time>
      </trkpt>
      <trkpt lat="44.95492" lon="3.65999">
        <ele>908</ele>
        <time>2025-09-16T11:53:11.000Z</time>
      </trkpt>
      <trkpt lat="44.95479" lon="3.65971">
        <ele>906</ele>
        <time>2025-09-16T11:54:23.000Z</time>
      </trkpt>
      <trkpt lat="44.95456" lon="3.65967">
        <ele>906</ele>
        <time>2025-09-16T11:55:29.000Z</time>
      </trkpt>
      <trkpt lat="44.95433" lon="3.65967">
        <ele>917</ele>
        <time>2025-09-16T11:56:41.000Z</time>
      </trkpt>
      <trkpt lat="44.95414" lon="3.65948">
        <ele>916</ele>
        <time>2025-09-16T12:02:02.000Z</time>
      </trkpt>
      <trkpt lat="44.95394" lon="3.65932">
        <ele>915</ele>
        <time>2025-09-16T12:02:27.000Z</time>
      </trkpt>
      <trkpt lat="44.95373" lon="3.65923">
        <ele>916</ele>
        <time>2025-09-16T12:02:49.000Z</time>
      </trkpt>
      <trkpt lat="44.95351" lon="3.65913">
        <ele>913</ele>
        <time>2025-09-16T12:03:11.000Z</time>
      </trkpt>
      <trkpt lat="44.95332" lon="3.65894">
        <ele>917</ele>
        <time>2025-09-16T12:03:31.000Z</time>
      </trkpt>
      <trkpt lat="44.95309" lon="3.65883">
        <ele>917</ele>
        <time>2025-09-16T12:03:50.000Z</time>
      </trkpt>
      <trkpt lat="44.9529" lon="3.65865">
        <ele>918</ele>
        <time>2025-09-16T12:04:07.000Z</time>
      </trkpt>
      <trkpt lat="44.95267" lon="3.6585">
        <ele>922</ele>
        <time>2025-09-16T12:04:30.000Z</time>
      </trkpt>
      <trkpt lat="44.95243" lon="3.65853">
        <ele>923</ele>
        <time>2025-09-16T12:05:08.000Z</time>
      </trkpt>
      <trkpt lat="44.95221" lon="3.65849">
        <ele>929</ele>
        <time>2025-09-16T12:05:30.000Z</time>
      </trkpt>
      <trkpt lat="44.95199" lon="3.65843">
        <ele>931</ele>
        <time>2025-09-16T12:06:08.000Z</time>
      </trkpt>
      <trkpt lat="44.95177" lon="3.65849">
        <ele>930</ele>
        <time>2025-09-16T12:06:31.000Z</time>
      </trkpt>
      <trkpt lat="44.95154" lon="3.6586">
        <ele>930</ele>
        <time>2025-09-16T12:06:58.000Z</time>
      </trkpt>
      <trkpt lat="44.9513" lon="3.65862">
        <ele>930</ele>
        <time>2025-09-16T12:07:24.000Z</time>
      </trkpt>
      <trkpt lat="44.95108" lon="3.65863">
        <ele>931</ele>
        <time>2025-09-16T12:07:48.000Z</time>
      </trkpt>
      <trkpt lat="44.95085" lon="3.65875">
        <ele>931</ele>
        <time>2025-09-16T12:08:08.000Z</time>
      </trkpt>
      <trkpt lat="44.95063" lon="3.65882">
        <ele>933</ele>
        <time>2025-09-16T12:08:31.000Z</time>
      </trkpt>
      <trkpt lat="44.95043" lon="3.65898">
        <ele>927</ele>
        <time>2025-09-16T12:08:49.000Z</time>
      </trkpt>
      <trkpt lat="44.95022" lon="3.65911">
        <ele>923</ele>
        <time>2025-09-16T12:09:11.000Z</time>
      </trkpt>
      <trkpt lat="44.94999" lon="3.65915">
        <ele>921</ele>
        <time>2025-09-16T12:09:35.000Z</time>
      </trkpt>
      <trkpt lat="44.94975" lon="3.6591">
        <ele>925</ele>
        <time>2025-09-16T12:10:01.000Z</time>
      </trkpt>
      <trkpt lat="44.94957" lon="3.65891">
        <ele>922</ele>
        <time>2025-09-16T12:11:32.000Z</time>
      </trkpt>
      <trkpt lat="44.94939" lon="3.65872">
        <ele>924</ele>
        <time>2025-09-16T12:11:52.000Z</time>
      </trkpt>
      <trkpt lat="44.94916" lon="3.65888">
        <ele>924</ele>
        <time>2025-09-16T12:12:37.000Z</time>
      </trkpt>
      <trkpt lat="44.94899" lon="3.65909">
        <ele>923</ele>
        <time>2025-09-16T12:13:04.000Z</time>
      </trkpt>
      <trkpt lat="44.9488" lon="3.65929">
        <ele>921</ele>
        <time>2025-09-16T12:13:26.000Z</time>
      </trkpt>
      <trkpt lat="44.94861" lon="3.65948">
        <ele>918</ele>
        <time>2025-09-16T12:13:45.000Z</time>
      </trkpt>
      <trkpt lat="44.94847" lon="3.65973">
        <ele>915</ele>
        <time>2025-09-16T12:15:33.000Z</time>
      </trkpt>
      <trkpt lat="44.94826" lon="3.65988">
        <ele>909</ele>
        <time>2025-09-16T12:15:54.000Z</time>
      </trkpt>
      <trkpt lat="44.94805" lon="3.66">
        <ele>908</ele>
        <time>2025-09-16T12:16:15.000Z</time>
      </trkpt>
      <trkpt lat="44.94787" lon="3.66018">
        <ele>905</ele>
        <time>2025-09-16T12:16:35.000Z</time>
      </trkpt>
      <trkpt lat="44.94767" lon="3.66035">
        <ele>902</ele>
        <time>2025-09-16T12:16:56.000Z</time>
      </trkpt>
      <trkpt lat="44.94753" lon="3.6606">
        <ele>900</ele>
        <time>2025-09-16T12:17:20.000Z</time>
      </trkpt>
      <trkpt lat="44.94732" lon="3.66076">
        <ele>896</ele>
        <time>2025-09-16T12:17:40.000Z</time>
      </trkpt>
      <trkpt lat="44.9471" lon="3.66088">
        <ele>896</ele>
        <time>2025-09-16T12:18:01.000Z</time>
      </trkpt>
      <trkpt lat="44.94687" lon="3.66087">
        <ele>894</ele>
        <time>2025-09-16T12:18:24.000Z</time>
      </trkpt>
      <trkpt lat="44.94666" lon="3.66075">
        <ele>889</ele>
        <time>2025-09-16T12:18:43.000Z</time>
      </trkpt>
      <trkpt lat="44.94643" lon="3.66074">
        <ele>890</ele>
        <time>2025-09-16T12:19:06.000Z</time>
      </trkpt>
      <trkpt lat="44.94621" lon="3.66085">
        <ele>890</ele>
        <time>2025-09-16T12:20:34.000Z</time>
      </trkpt>
      <trkpt lat="44.94601" lon="3.66101">
        <ele>887</ele>
        <time>2025-09-16T12:20:52.000Z</time>
      </trkpt>
      <trkpt lat="44.9458" lon="3.66115">
        <ele>884</ele>
        <time>2025-09-16T12:21:10.000Z</time>
      </trkpt>
      <trkpt lat="44.94557" lon="3.66121">
        <ele>885</ele>
        <time>2025-09-16T12:21:27.000Z</time>
      </trkpt>
      <trkpt lat="44.94534" lon="3.66123">
        <ele>882</ele>
        <time>2025-09-16T12:21:48.000Z</time>
      </trkpt>
      <trkpt lat="44.94512" lon="3.66132">
        <ele>878</ele>
        <time>2025-09-16T12:22:05.000Z</time>
      </trkpt>
      <trkpt lat="44.9449" lon="3.66145">
        <ele>878</ele>
        <time>2025-09-16T12:22:27.000Z</time>
      </trkpt>
      <trkpt lat="44.9448" lon="3.66173">
        <ele>870</ele>
        <time>2025-09-16T12:23:26.000Z</time>
      </trkpt>
      <trkpt lat="44.94458" lon="3.66165">
        <ele>868</ele>
        <time>2025-09-16T12:24:38.000Z</time>
      </trkpt>
      <trkpt lat="44.94437" lon="3.66152">
        <ele>867</ele>
        <time>2025-09-16T12:25:00.000Z</time>
      </trkpt>
      <trkpt lat="44.94414" lon="3.66146">
        <ele>868</ele>
        <time>2025-09-16T12:28:08.000Z</time>
      </trkpt>
      <trkpt lat="44.94391" lon="3.66146">
        <ele>870</ele>
        <time>2025-09-16T12:28:27.000Z</time>
      </trkpt>
      <trkpt lat="44.94372" lon="3.66162">
        <ele>870</ele>
        <time>2025-09-16T12:28:46.000Z</time>
      </trkpt>
      <trkpt lat="44.94353" lon="3.66181">
        <ele>870</ele>
        <time>2025-09-16T12:29:05.000Z</time>
      </trkpt>
      <trkpt lat="44.94333" lon="3.66197">
        <ele>872</ele>
        <time>2025-09-16T12:29:25.000Z</time>
      </trkpt>
      <trkpt lat="44.94312" lon="3.66211">
        <ele>872</ele>
        <time>2025-09-16T12:29:47.000Z</time>
      </trkpt>
      <trkpt lat="44.94293" lon="3.66228">
        <ele>875</ele>
        <time>2025-09-16T12:30:09.000Z</time>
      </trkpt>
      <trkpt lat="44.94273" lon="3.66244">
        <ele>876</ele>
        <time>2025-09-16T12:30:33.000Z</time>
      </trkpt>
      <trkpt lat="44.94254" lon="3.6626">
        <ele>878</ele>
        <time>2025-09-16T12:30:52.000Z</time>
      </trkpt>
      <trkpt lat="44.94232" lon="3.66272">
        <ele>876</ele>
        <time>2025-09-16T12:31:13.000Z</time>
      </trkpt>
      <trkpt lat="44.94209" lon="3.66278">
        <ele>875</ele>
        <time>2025-09-16T12:31:34.000Z</time>
      </trkpt>
      <trkpt lat="44.94186" lon="3.66282">
        <ele>874</ele>
        <time>2025-09-16T12:31:52.000Z</time>
      </trkpt>
      <trkpt lat="44.94163" lon="3.66284">
        <ele>879</ele>
        <time>2025-09-16T12:32:11.000Z</time>
      </trkpt>
      <trkpt lat="44.9414" lon="3.66285">
        <ele>874</ele>
        <time>2025-09-16T12:32:53.000Z</time>
      </trkpt>
      <trkpt lat="44.94119" lon="3.66299">
        <ele>875</ele>
        <time>2025-09-16T12:33:11.000Z</time>
      </trkpt>
      <trkpt lat="44.94096" lon="3.66306">
        <ele>874</ele>
        <time>2025-09-16T12:33:31.000Z</time>
      </trkpt>
      <trkpt lat="44.94074" lon="3.66317">
        <ele>875</ele>
        <time>2025-09-16T12:33:51.000Z</time>
      </trkpt>
      <trkpt lat="44.94051" lon="3.66322">
        <ele>874</ele>
        <time>2025-09-16T12:34:09.000Z</time>
      </trkpt>
      <trkpt lat="44.94027" lon="3.66325">
        <ele>871</ele>
        <time>2025-09-16T12:34:29.000Z</time>
      </trkpt>
      <trkpt lat="44.9401" lon="3.66346">
        <ele>872</ele>
        <time>2025-09-16T12:34:55.000Z</time>
      </trkpt>
      <trkpt lat="44.93991" lon="3.66364">
        <ele>870</ele>
        <time>2025-09-16T12:35:18.000Z</time>
      </trkpt>
      <trkpt lat="44.93971" lon="3.6638">
        <ele>865</ele>
        <time>2025-09-16T12:35:36.000Z</time>
      </trkpt>
      <trkpt lat="44.9395" lon="3.66395">
        <ele>863</ele>
        <time>2025-09-16T12:35:53.000Z</time>
      </trkpt>
      <trkpt lat="44.93929" lon="3.66408">
        <ele>859</ele>
        <time>2025-09-16T12:36:12.000Z</time>
      </trkpt>
      <trkpt lat="44.93906" lon="3.66411">
        <ele>856</ele>
        <time>2025-09-16T12:36:33.000Z</time>
      </trkpt>
      <trkpt lat="44.93881" lon="3.66411">
        <ele>856</ele>
        <time>2025-09-16T12:36:52.000Z</time>
      </trkpt>
      <trkpt lat="44.93859" lon="3.6641">
        <ele>852</ele>
        <time>2025-09-16T12:37:12.000Z</time>
      </trkpt>
      <trkpt lat="44.93837" lon="3.66399">
        <ele>849</ele>
        <time>2025-09-16T12:37:35.000Z</time>
      </trkpt>
      <trkpt lat="44.93824" lon="3.66373">
        <ele>850</ele>
        <time>2025-09-16T12:37:56.000Z</time>
      </trkpt>
      <trkpt lat="44.93807" lon="3.66352">
        <ele>848</ele>
        <time>2025-09-16T12:38:16.000Z</time>
      </trkpt>
      <trkpt lat="44.93784" lon="3.66345">
        <ele>849</ele>
        <time>2025-09-16T12:38:41.000Z</time>
      </trkpt>
      <trkpt lat="44.93764" lon="3.66361">
        <ele>847</ele>
        <time>2025-09-16T12:41:13.000Z</time>
      </trkpt>
      <trkpt lat="44.93741" lon="3.66368">
        <ele>845</ele>
        <time>2025-09-16T12:41:33.000Z</time>
      </trkpt>
      <trkpt lat="44.93718" lon="3.6637">
        <ele>840</ele>
        <time>2025-09-16T12:41:53.000Z</time>
      </trkpt>
      <trkpt lat="44.93694" lon="3.66371">
        <ele>840</ele>
        <time>2025-09-16T12:42:19.000Z</time>
      </trkpt>
      <trkpt lat="44.93672" lon="3.66369">
        <ele>832</ele>
        <time>2025-09-16T12:42:52.000Z</time>
      </trkpt>
      <trkpt lat="44.93649" lon="3.66372">
        <ele>832</ele>
        <time>2025-09-16T12:43:09.000Z</time>
      </trkpt>
      <trkpt lat="44.93627" lon="3.66382">
        <ele>832</ele>
        <time>2025-09-16T12:43:31.000Z</time>
      </trkpt>
      <trkpt lat="44.93605" lon="3.66392">
        <ele>826</ele>
        <time>2025-09-16T12:44:04.000Z</time>
      </trkpt>
      <trkpt lat="44.93581" lon="3.66399">
        <ele>823</ele>
        <time>2025-09-16T12:44:27.000Z</time>
      </trkpt>
      <trkpt lat="44.93559" lon="3.6641">
        <ele>817</ele>
        <time>2025-09-16T12:44:53.000Z</time>
      </trkpt>
      <trkpt lat="44.93538" lon="3.6642">
        <ele>813</ele>
        <time>2025-09-16T12:45:16.000Z</time>
      </trkpt>
      <trkpt lat="44.93516" lon="3.66431">
        <ele>808</ele>
        <time>2025-09-16T12:45:44.000Z</time>
      </trkpt>
      <trkpt lat="44.93493" lon="3.66433">
        <ele>802</ele>
        <time>2025-09-16T12:46:09.000Z</time>
      </trkpt>
      <trkpt lat="44.93469" lon="3.66423">
        <ele>799</ele>
        <time>2025-09-16T12:46:33.000Z</time>
      </trkpt>
      <trkpt lat="44.93447" lon="3.66409">
        <ele>792</ele>
        <time>2025-09-16T12:47:00.000Z</time>
      </trkpt>
      <trkpt lat="44.93425" lon="3.664">
        <ele>788</ele>
        <time>2025-09-16T12:47:23.000Z</time>
      </trkpt>
      <trkpt lat="44.93403" lon="3.66392">
        <ele>783</ele>
        <time>2025-09-16T12:47:48.000Z</time>
      </trkpt>
      <trkpt lat="44.9338" lon="3.66388">
        <ele>783</ele>
        <time>2025-09-16T12:48:07.000Z</time>
      </trkpt>
      <trkpt lat="44.93357" lon="3.66385">
        <ele>786</ele>
        <time>2025-09-16T12:48:40.000Z</time>
      </trkpt>
      <trkpt lat="44.93375" lon="3.66404">
        <ele>790</ele>
        <time>2025-09-16T12:49:56.000Z</time>
      </trkpt>
      <trkpt lat="44.93391" lon="3.66427">
        <ele>790</ele>
        <time>2025-09-16T12:50:11.000Z</time>
      </trkpt>
      <trkpt lat="44.93395" lon="3.66459">
        <ele>789</ele>
        <time>2025-09-16T12:50:34.000Z</time>
      </trkpt>
      <trkpt lat="44.93397" lon="3.66491">
        <ele>798</ele>
        <time>2025-09-16T12:50:58.000Z</time>
      </trkpt>
      <trkpt lat="44.93403" lon="3.66522">
        <ele>800</ele>
        <time>2025-09-16T12:51:37.000Z</time>
      </trkpt>
      <trkpt lat="44.9342" lon="3.66543">
        <ele>806</ele>
        <time>2025-09-16T12:52:02.000Z</time>
      </trkpt>
      <trkpt lat="44.93403" lon="3.66566">
        <ele>803</ele>
        <time>2025-09-16T12:52:37.000Z</time>
      </trkpt>
      <trkpt lat="44.93425" lon="3.6658">
        <ele>804</ele>
        <time>2025-09-16T12:55:44.000Z</time>
      </trkpt>
      <trkpt lat="44.93436" lon="3.66609">
        <ele>806</ele>
        <time>2025-09-16T12:56:03.000Z</time>
      </trkpt>
      <trkpt lat="44.93454" lon="3.66634">
        <ele>807</ele>
        <time>2025-09-16T12:56:24.000Z</time>
      </trkpt>
      <trkpt lat="44.9347" lon="3.66656">
        <ele>804</ele>
        <time>2025-09-16T12:56:41.000Z</time>
      </trkpt>
      <trkpt lat="44.93481" lon="3.66685">
        <ele>808</ele>
        <time>2025-09-16T12:57:01.000Z</time>
      </trkpt>
      <trkpt lat="44.93486" lon="3.66718">
        <ele>808</ele>
        <time>2025-09-16T12:57:22.000Z</time>
      </trkpt>
      <trkpt lat="44.93492" lon="3.6675">
        <ele>811</ele>
        <time>2025-09-16T12:57:42.000Z</time>
      </trkpt>
      <trkpt lat="44.93493" lon="3.66782">
        <ele>810</ele>
        <time>2025-09-16T12:58:01.000Z</time>
      </trkpt>
      <trkpt lat="44.93507" lon="3.66807">
        <ele>810</ele>
        <time>2025-09-16T12:58:22.000Z</time>
      </trkpt>
      <trkpt lat="44.93525" lon="3.66828">
        <ele>808</ele>
        <time>2025-09-16T12:58:40.000Z</time>
      </trkpt>
      <trkpt lat="44.93527" lon="3.6686">
        <ele>808</ele>
        <time>2025-09-16T12:58:59.000Z</time>
      </trkpt>
      <trkpt lat="44.93528" lon="3.66893">
        <ele>807</ele>
        <time>2025-09-16T12:59:20.000Z</time>
      </trkpt>
      <trkpt lat="44.93529" lon="3.66926">
        <ele>809</ele>
        <time>2025-09-16T12:59:39.000Z</time>
      </trkpt>
      <trkpt lat="44.93523" lon="3.66957">
        <ele>806</ele>
        <time>2025-09-16T12:59:59.000Z</time>
      </trkpt>
      <trkpt lat="44.93508" lon="3.66983">
        <ele>806</ele>
        <time>2025-09-16T13:00:18.000Z</time>
      </trkpt>
      <trkpt lat="44.9349" lon="3.67005">
        <ele>803</ele>
        <time>2025-09-16T13:00:38.000Z</time>
      </trkpt>
      <trkpt lat="44.93472" lon="3.67025">
        <ele>804</ele>
        <time>2025-09-16T13:00:56.000Z</time>
      </trkpt>
      <trkpt lat="44.93457" lon="3.6705">
        <ele>803</ele>
        <time>2025-09-16T13:01:20.000Z</time>
      </trkpt>
      <trkpt lat="44.93438" lon="3.67068">
        <ele>798</ele>
        <time>2025-09-16T13:01:41.000Z</time>
      </trkpt>
      <trkpt lat="44.93415" lon="3.67077">
        <ele>797</ele>
        <time>2025-09-16T13:02:02.000Z</time>
      </trkpt>
      <trkpt lat="44.93393" lon="3.67077">
        <ele>801</ele>
        <time>2025-09-16T13:02:18.000Z</time>
      </trkpt>
      <trkpt lat="44.93379" lon="3.67104">
        <ele>802</ele>
        <time>2025-09-16T13:02:37.000Z</time>
      </trkpt>
      <trkpt lat="44.93363" lon="3.67126">
        <ele>800</ele>
        <time>2025-09-16T13:02:58.000Z</time>
      </trkpt>
      <trkpt lat="44.93346" lon="3.67149">
        <ele>797</ele>
        <time>2025-09-16T13:03:21.000Z</time>
      </trkpt>
      <trkpt lat="44.9333" lon="3.67172">
        <ele>799</ele>
        <time>2025-09-16T13:03:41.000Z</time>
      </trkpt>
      <trkpt lat="44.93312" lon="3.67192">
        <ele>800</ele>
        <time>2025-09-16T13:04:03.000Z</time>
      </trkpt>
      <trkpt lat="44.93302" lon="3.67223">
        <ele>798</ele>
        <time>2025-09-16T13:04:25.000Z</time>
      </trkpt>
      <trkpt lat="44.93296" lon="3.67255">
        <ele>797</ele>
        <time>2025-09-16T13:04:46.000Z</time>
      </trkpt>
      <trkpt lat="44.93288" lon="3.67286">
        <ele>796</ele>
        <time>2025-09-16T13:05:06.000Z</time>
      </trkpt>
      <trkpt lat="44.93279" lon="3.67317">
        <ele>799</ele>
        <time>2025-09-16T13:05:25.000Z</time>
      </trkpt>
      <trkpt lat="44.93273" lon="3.6735">
        <ele>798</ele>
        <time>2025-09-16T13:05:49.000Z</time>
      </trkpt>
      <trkpt lat="44.93277" lon="3.67381">
        <ele>795</ele>
        <time>2025-09-16T13:06:12.000Z</time>
      </trkpt>
      <trkpt lat="44.93299" lon="3.67389">
        <ele>796</ele>
        <time>2025-09-16T13:06:39.000Z</time>
      </trkpt>
      <trkpt lat="44.93321" lon="3.67398">
        <ele>798</ele>
        <time>2025-09-16T13:13:19.000Z</time>
      </trkpt>
      <trkpt lat="44.93298" lon="3.67394">
        <ele>798</ele>
        <time>2025-09-16T13:17:13.000Z</time>
      </trkpt>
      <trkpt lat="44.93275" lon="3.67393">
        <ele>798</ele>
        <time>2025-09-16T13:17:43.000Z</time>
      </trkpt>
      <trkpt lat="44.93252" lon="3.67392">
        <ele>798</ele>
        <time>2025-09-16T13:18:10.000Z</time>
      </trkpt>
      <trkpt lat="44.93231" lon="3.67382">
        <ele>799</ele>
        <time>2025-09-16T13:18:32.000Z</time>
      </trkpt>
      <trkpt lat="44.93208" lon="3.67381">
        <ele>801</ele>
        <time>2025-09-16T13:18:53.000Z</time>
      </trkpt>
      <trkpt lat="44.93185" lon="3.67376">
        <ele>802</ele>
        <time>2025-09-16T13:19:14.000Z</time>
      </trkpt>
      <trkpt lat="44.93163" lon="3.67365">
        <ele>802</ele>
        <time>2025-09-16T13:19:33.000Z</time>
      </trkpt>
      <trkpt lat="44.93142" lon="3.67351">
        <ele>801</ele>
        <time>2025-09-16T13:19:53.000Z</time>
      </trkpt>
      <trkpt lat="44.93121" lon="3.67338">
        <ele>801</ele>
        <time>2025-09-16T13:20:12.000Z</time>
      </trkpt>
      <trkpt lat="44.931" lon="3.67324">
        <ele>800</ele>
        <time>2025-09-16T13:20:32.000Z</time>
      </trkpt>
      <trkpt lat="44.93079" lon="3.67312">
        <ele>800</ele>
        <time>2025-09-16T13:20:52.000Z</time>
      </trkpt>
      <trkpt lat="44.93056" lon="3.67303">
        <ele>799</ele>
        <time>2025-09-16T13:21:13.000Z</time>
      </trkpt>
      <trkpt lat="44.93034" lon="3.6731">
        <ele>798</ele>
        <time>2025-09-16T13:21:36.000Z</time>
      </trkpt>
      <trkpt lat="44.93011" lon="3.67317">
        <ele>796</ele>
        <time>2025-09-16T13:21:59.000Z</time>
      </trkpt>
      <trkpt lat="44.92989" lon="3.67323">
        <ele>795</ele>
        <time>2025-09-16T13:22:21.000Z</time>
      </trkpt>
      <trkpt lat="44.92966" lon="3.67331">
        <ele>794</ele>
        <time>2025-09-16T13:22:42.000Z</time>
      </trkpt>
      <trkpt lat="44.92943" lon="3.67329">
        <ele>793</ele>
        <time>2025-09-16T13:23:04.000Z</time>
      </trkpt>
      <trkpt lat="44.9292" lon="3.67332">
        <ele>793</ele>
        <time>2025-09-16T13:23:24.000Z</time>
      </trkpt>
      <trkpt lat="44.92901" lon="3.67348">
        <ele>791</ele>
        <time>2025-09-16T13:23:45.000Z</time>
      </trkpt>
      <trkpt lat="44.92891" lon="3.67378">
        <ele>791</ele>
        <time>2025-09-16T13:24:08.000Z</time>
      </trkpt>
      <trkpt lat="44.92888" lon="3.6741">
        <ele>794</ele>
        <time>2025-09-16T13:24:30.000Z</time>
      </trkpt>
      <trkpt lat="44.92877" lon="3.67439">
        <ele>795</ele>
        <time>2025-09-16T13:24:53.000Z</time>
      </trkpt>
      <trkpt lat="44.92858" lon="3.67457">
        <ele>796</ele>
        <time>2025-09-16T13:25:15.000Z</time>
      </trkpt>
      <trkpt lat="44.92835" lon="3.67466">
        <ele>796</ele>
        <time>2025-09-16T13:25:36.000Z</time>
      </trkpt>
      <trkpt lat="44.92813" lon="3.67466">
        <ele>796</ele>
        <time>2025-09-16T13:25:56.000Z</time>
      </trkpt>
      <trkpt lat="44.9279" lon="3.67464">
        <ele>797</ele>
        <time>2025-09-16T13:26:16.000Z</time>
      </trkpt>
      <trkpt lat="44.92767" lon="3.6746">
        <ele>797</ele>
        <time>2025-09-16T13:26:37.000Z</time>
      </trkpt>
      <trkpt lat="44.92743" lon="3.6746">
        <ele>795</ele>
        <time>2025-09-16T13:26:59.000Z</time>
      </trkpt>
      <trkpt lat="44.92719" lon="3.67458">
        <ele>796</ele>
        <time>2025-09-16T13:27:24.000Z</time>
      </trkpt>
      <trkpt lat="44.92697" lon="3.67453">
        <ele>794</ele>
        <time>2025-09-16T13:27:43.000Z</time>
      </trkpt>
      <trkpt lat="44.92675" lon="3.67447">
        <ele>793</ele>
        <time>2025-09-16T13:28:04.000Z</time>
      </trkpt>
      <trkpt lat="44.92652" lon="3.67441">
        <ele>792</ele>
        <time>2025-09-16T13:28:24.000Z</time>
      </trkpt>
      <trkpt lat="44.92631" lon="3.67428">
        <ele>791</ele>
        <time>2025-09-16T13:28:45.000Z</time>
      </trkpt>
      <trkpt lat="44.92611" lon="3.6741">
        <ele>789</ele>
        <time>2025-09-16T13:29:06.000Z</time>
      </trkpt>
      <trkpt lat="44.92591" lon="3.67393">
        <ele>789</ele>
        <time>2025-09-16T13:29:26.000Z</time>
      </trkpt>
      <trkpt lat="44.92571" lon="3.67378">
        <ele>789</ele>
        <time>2025-09-16T13:29:47.000Z</time>
      </trkpt>
      <trkpt lat="44.92551" lon="3.67362">
        <ele>786</ele>
        <time>2025-09-16T13:30:08.000Z</time>
      </trkpt>
      <trkpt lat="44.92532" lon="3.67342">
        <ele>789</ele>
        <time>2025-09-16T13:30:30.000Z</time>
      </trkpt>
      <trkpt lat="44.92513" lon="3.67324">
        <ele>790</ele>
        <time>2025-09-16T13:30:50.000Z</time>
      </trkpt>
      <trkpt lat="44.92497" lon="3.67301">
        <ele>791</ele>
        <time>2025-09-16T13:31:13.000Z</time>
      </trkpt>
      <trkpt lat="44.92481" lon="3.67277">
        <ele>791</ele>
        <time>2025-09-16T13:31:49.000Z</time>
      </trkpt>
      <trkpt lat="44.92471" lon="3.67248">
        <ele>791</ele>
        <time>2025-09-16T13:32:07.000Z</time>
      </trkpt>
      <trkpt lat="44.92455" lon="3.67226">
        <ele>792</ele>
        <time>2025-09-16T13:32:28.000Z</time>
      </trkpt>
      <trkpt lat="44.92435" lon="3.67208">
        <ele>793</ele>
        <time>2025-09-16T13:32:49.000Z</time>
      </trkpt>
      <trkpt lat="44.92417" lon="3.67187">
        <ele>794</ele>
        <time>2025-09-16T13:33:12.000Z</time>
      </trkpt>
      <trkpt lat="44.924" lon="3.67164">
        <ele>795</ele>
        <time>2025-09-16T13:33:31.000Z</time>
      </trkpt>
      <trkpt lat="44.92387" lon="3.67138">
        <ele>794</ele>
        <time>2025-09-16T13:36:39.000Z</time>
      </trkpt>
      <trkpt lat="44.92368" lon="3.67119">
        <ele>792</ele>
        <time>2025-09-16T13:37:07.000Z</time>
      </trkpt>
      <trkpt lat="44.92347" lon="3.67103">
        <ele>788</ele>
        <time>2025-09-16T13:37:42.000Z</time>
      </trkpt>
      <trkpt lat="44.92325" lon="3.67096">
        <ele>784</ele>
        <time>2025-09-16T13:38:09.000Z</time>
      </trkpt>
      <trkpt lat="44.92328" lon="3.67063">
        <ele>780</ele>
        <time>2025-09-16T13:38:33.000Z</time>
      </trkpt>
      <trkpt lat="44.92306" lon="3.67055">
        <ele>782</ele>
        <time>2025-09-16T13:39:08.000Z</time>
      </trkpt>
      <trkpt lat="44.92283" lon="3.6706">
        <ele>779</ele>
        <time>2025-09-16T13:39:29.000Z</time>
      </trkpt>
      <trkpt lat="44.92259" lon="3.67058">
        <ele>774</ele>
        <time>2025-09-16T13:39:55.000Z</time>
      </trkpt>
      <trkpt lat="44.92235" lon="3.67055">
        <ele>769</ele>
        <time>2025-09-16T13:40:29.000Z</time>
      </trkpt>
      <trkpt lat="44.92231" lon="3.67088">
        <ele>762</ele>
        <time>2025-09-16T13:42:01.000Z</time>
      </trkpt>
      <trkpt lat="44.9221" lon="3.67104">
        <ele>759</ele>
        <time>2025-09-16T13:42:29.000Z</time>
      </trkpt>
      <trkpt lat="44.92191" lon="3.67121">
        <ele>751</ele>
        <time>2025-09-16T13:43:13.000Z</time>
      </trkpt>
      <trkpt lat="44.92211" lon="3.6714">
        <ele>745</ele>
        <time>2025-09-16T13:44:20.000Z</time>
      </trkpt>
      <trkpt lat="44.92214" lon="3.67172">
        <ele>739</ele>
        <time>2025-09-16T13:44:50.000Z</time>
      </trkpt>
      <trkpt lat="44.92216" lon="3.67205">
        <ele>736</ele>
        <time>2025-09-16T13:45:19.000Z</time>
      </trkpt>
      <trkpt lat="44.92222" lon="3.67237">
        <ele>735</ele>
        <time>2025-09-16T13:46:15.000Z</time>
      </trkpt>
      <trkpt lat="44.9222" lon="3.67269">
        <ele>727</ele>
        <time>2025-09-16T13:47:02.000Z</time>
      </trkpt>
      <trkpt lat="44.92222" lon="3.67301">
        <ele>722</ele>
        <time>2025-09-16T13:47:46.000Z</time>
      </trkpt>
      <trkpt lat="44.92199" lon="3.67295">
        <ele>715</ele>
        <time>2025-09-16T13:49:10.000Z</time>
      </trkpt>
      <trkpt lat="44.9218" lon="3.67276">
        <ele>709</ele>
        <time>2025-09-16T13:49:59.000Z</time>
      </trkpt>
      <trkpt lat="44.92164" lon="3.67252">
        <ele>700</ele>
        <time>2025-09-16T13:50:46.000Z</time>
      </trkpt>
      <trkpt lat="44.92149" lon="3.67229">
        <ele>699</ele>
        <time>2025-09-16T13:51:21.000Z</time>
      </trkpt>
      <trkpt lat="44.9214" lon="3.67259">
        <ele>692</ele>
        <time>2025-09-16T13:52:11.000Z</time>
      </trkpt>
      <trkpt lat="44.9212" lon="3.67242">
        <ele>684</ele>
        <time>2025-09-16T13:52:58.000Z</time>
      </trkpt>
      <trkpt lat="44.92105" lon="3.67217">
        <ele>678</ele>
        <time>2025-09-16T13:53:28.000Z</time>
      </trkpt>
      <trkpt lat="44.92085" lon="3.67202">
        <ele>674</ele>
        <time>2025-09-16T13:53:57.000Z</time>
      </trkpt>
      <trkpt lat="44.92066" lon="3.67185">
        <ele>671</ele>
        <time>2025-09-16T13:54:35.000Z</time>
      </trkpt>
      <trkpt lat="44.92047" lon="3.67167">
        <ele>668</ele>
        <time>2025-09-16T13:57:11.000Z</time>
      </trkpt>
      <trkpt lat="44.92032" lon="3.67143">
        <ele>667</ele>
        <time>2025-09-16T13:57:33.000Z</time>
      </trkpt>
      <trkpt lat="44.92016" lon="3.67119">
        <ele>666</ele>
        <time>2025-09-16T13:57:53.000Z</time>
      </trkpt>
      <trkpt lat="44.91993" lon="3.67111">
        <ele>662</ele>
        <time>2025-09-16T13:58:14.000Z</time>
      </trkpt>
      <trkpt lat="44.91974" lon="3.67129">
        <ele>662</ele>
        <time>2025-09-16T13:58:36.000Z</time>
      </trkpt>
      <trkpt lat="44.91958" lon="3.67152">
        <ele>660</ele>
        <time>2025-09-16T13:59:01.000Z</time>
      </trkpt>
      <trkpt lat="44.91942" lon="3.67176">
        <ele>660</ele>
        <time>2025-09-16T13:59:31.000Z</time>
      </trkpt>
      <trkpt lat="44.91926" lon="3.67199">
        <ele>661</ele>
        <time>2025-09-16T14:00:05.000Z</time>
      </trkpt>
      <trkpt lat="44.9191" lon="3.6722">
        <ele>661</ele>
        <time>2025-09-16T14:00:25.000Z</time>
      </trkpt>
      <trkpt lat="44.91894" lon="3.67244">
        <ele>662</ele>
        <time>2025-09-16T14:00:59.000Z</time>
      </trkpt>
      <trkpt lat="44.91871" lon="3.67242">
        <ele>662</ele>
        <time>2025-09-16T14:01:21.000Z</time>
      </trkpt>
      <trkpt lat="44.91858" lon="3.67215">
        <ele>660</ele>
        <time>2025-09-16T14:01:46.000Z</time>
      </trkpt>
      <trkpt lat="44.91847" lon="3.67187">
        <ele>659</ele>
        <time>2025-09-16T14:02:08.000Z</time>
      </trkpt>
      <trkpt lat="44.91838" lon="3.67156">
        <ele>658</ele>
        <time>2025-09-16T14:02:31.000Z</time>
      </trkpt>
      <trkpt lat="44.91837" lon="3.67124">
        <ele>656</ele>
        <time>2025-09-16T14:02:50.000Z</time>
      </trkpt>
      <trkpt lat="44.91831" lon="3.67093">
        <ele>658</ele>
        <time>2025-09-16T14:03:10.000Z</time>
      </trkpt>
      <trkpt lat="44.91823" lon="3.67062">
        <ele>657</ele>
        <time>2025-09-16T14:03:33.000Z</time>
      </trkpt>
      <trkpt lat="44.91808" lon="3.67035">
        <ele>658</ele>
        <time>2025-09-16T14:03:55.000Z</time>
      </trkpt>
      <trkpt lat="44.91794" lon="3.67008">
        <ele>660</ele>
        <time>2025-09-16T14:04:13.000Z</time>
      </trkpt>
      <trkpt lat="44.91778" lon="3.66984">
        <ele>662</ele>
        <time>2025-09-16T14:04:33.000Z</time>
      </trkpt>
      <trkpt lat="44.91761" lon="3.66964">
        <ele>664</ele>
        <time>2025-09-16T14:04:52.000Z</time>
      </trkpt>
      <trkpt lat="44.91741" lon="3.66947">
        <ele>665</ele>
        <time>2025-09-16T14:05:18.000Z</time>
      </trkpt>
      <trkpt lat="44.91719" lon="3.66933">
        <ele>666</ele>
        <time>2025-09-16T14:05:36.000Z</time>
      </trkpt>
      <trkpt lat="44.91698" lon="3.66923">
        <ele>665</ele>
        <time>2025-09-16T14:05:52.000Z</time>
      </trkpt>
      <trkpt lat="44.91676" lon="3.66918">
        <ele>665</ele>
        <time>2025-09-16T14:06:08.000Z</time>
      </trkpt>
      <trkpt lat="44.91653" lon="3.66919">
        <ele>666</ele>
        <time>2025-09-16T14:06:24.000Z</time>
      </trkpt>
      <trkpt lat="44.9163" lon="3.66919">
        <ele>667</ele>
        <time>2025-09-16T14:06:41.000Z</time>
      </trkpt>
      <trkpt lat="44.91607" lon="3.66924">
        <ele>668</ele>
        <time>2025-09-16T14:06:59.000Z</time>
      </trkpt>
      <trkpt lat="44.91584" lon="3.66927">
        <ele>668</ele>
        <time>2025-09-16T14:07:17.000Z</time>
      </trkpt>
      <trkpt lat="44.9156" lon="3.66928">
        <ele>669</ele>
        <time>2025-09-16T14:07:35.000Z</time>
      </trkpt>
      <trkpt lat="44.91538" lon="3.66932">
        <ele>669</ele>
        <time>2025-09-16T14:07:52.000Z</time>
      </trkpt>
      <trkpt lat="44.91516" lon="3.66924">
        <ele>666</ele>
        <time>2025-09-16T14:08:16.000Z</time>
      </trkpt>
      <trkpt lat="44.91503" lon="3.66896">
        <ele>667</ele>
        <time>2025-09-16T14:08:40.000Z</time>
      </trkpt>
    </trkseg>
  </trk>
</gpx>